Time,TemperatureF,DewpointF,PressureIn,WindDirection,WindDirectionDegrees,WindSpeedMPH,WindSpeedGustMPH,Humidity,HourlyPrecipIn,Conditions,Clouds,dailyrainin,SoftwareType,DateUTC
2013-04-03 00:04:00,27.7,21.1,30.32,WNW,285,2.0,4.0,76,0.00,,,0.00,Wunderground v.1.15,2013-04-03 05:04:00,
2013-04-03 00:10:00,27.7,21.1,30.32,NW,304,3.0,4.0,76,0.00,,,0.00,Wunderground v.1.15,2013-04-03 05:10:00,
2013-04-03 00:16:00,27.6,21.0,30.32,WNW,298,3.0,4.0,76,0.00,,,0.00,Wunderground v.1.15,2013-04-03 05:16:00,
2013-04-03 00:22:00,27.5,20.6,30.32,NW,306,2.0,3.0,75,0.00,,,0.00,Wunderground v.1.15,2013-04-03 05:22:00,
2013-04-03 00:28:00,27.4,20.8,30.32,NW,306,1.0,3.0,76,0.00,,,0.00,Wunderground v.1.15,2013-04-03 05:28:00,
2013-04-03 00:34:00,27.1,20.8,30.33,NW,306,1.0,3.0,77,0.00,,,0.00,Wunderground v.1.15,2013-04-03 05:34:00,
2013-04-03 00:40:00,26.9,20.7,30.32,NW,306,1.0,1.0,77,0.00,,,0.00,Wunderground v.1.15,2013-04-03 05:40:00,
2013-04-03 00:46:00,26.7,20.8,30.33,NNW,342,1.0,3.0,78,0.00,,,0.00,Wunderground v.1.15,2013-04-03 05:46:00,
2013-04-03 00:52:00,26.5,20.6,30.33,NNW,345,2.0,2.0,78,0.00,,,0.00,Wunderground v.1.15,2013-04-03 05:52:00,
2013-04-03 00:58:00,26.1,20.5,30.33,NNW,348,2.0,3.0,79,0.00,,,0.00,Wunderground v.1.15,2013-04-03 05:58:00,
2013-04-03 01:04:00,25.7,20.1,30.33,NNW,348,2.0,2.0,79,0.00,,,0.00,Wunderground v.1.15,2013-04-03 06:04:00,
2013-04-03 01:10:00,25.7,20.1,30.33,NNW,346,2.0,2.0,79,0.00,,,0.00,Wunderground v.1.15,2013-04-03 06:10:00,
2013-04-03 01:16:00,25.5,19.9,30.33,NNW,346,2.0,3.0,79,0.00,,,0.00,Wunderground v.1.15,2013-04-03 06:16:00,
2013-04-03 01:22:00,25.5,20.2,30.33,NNW,345,2.0,2.0,80,0.00,,,0.00,Wunderground v.1.15,2013-04-03 06:22:00,
2013-04-03 01:28:00,25.5,20.2,30.33,NNW,345,2.0,2.0,80,0.00,,,0.00,Wunderground v.1.15,2013-04-03 06:28:00,
2013-04-03 01:34:00,25.5,20.2,30.33,NNW,345,2.0,2.0,80,0.00,,,0.00,Wunderground v.1.15,2013-04-03 06:34:00,
2013-04-03 01:40:00,25.5,20.5,30.34,NNW,345,1.0,2.0,81,0.00,,,0.00,Wunderground v.1.15,2013-04-03 06:40:00,
2013-04-03 01:48:00,25.4,20.1,30.34,NNW,345,0.0,1.0,80,0.00,,,0.00,Wunderground v.1.15,2013-04-03 06:48:00,
2013-04-03 01:54:00,25.3,20.0,30.34,NNW,345,0.0,0.0,80,0.00,,,0.00,Wunderground v.1.15,2013-04-03 06:54:00,
2013-04-03 02:00:00,25.2,19.9,30.34,NNW,345,0.0,0.0,80,0.00,,,0.00,Wunderground v.1.15,2013-04-03 07:00:00,
2013-04-03 02:06:00,24.7,19.4,30.34,NNW,345,0.0,0.0,80,0.00,,,0.00,Wunderground v.1.15,2013-04-03 07:06:00,
2013-04-03 02:12:00,23.9,18.6,30.34,NNW,345,0.0,0.0,80,0.00,,,0.00,Wunderground v.1.15,2013-04-03 07:12:00,
2013-04-03 02:18:00,23.3,18.6,30.34,NNW,345,0.0,0.0,82,0.00,,,0.00,Wunderground v.1.15,2013-04-03 07:18:00,
2013-04-03 02:24:00,23.0,18.6,30.34,NNW,345,0.0,0.0,83,0.00,,,0.00,Wunderground v.1.15,2013-04-03 07:24:00,
2013-04-03 02:30:00,22.6,18.2,30.34,NNW,345,0.0,0.0,83,0.00,,,0.00,Wunderground v.1.15,2013-04-03 07:30:00,
2013-04-03 02:38:00,22.1,18.0,30.34,NNW,345,0.0,0.0,84,0.00,,,0.00,Wunderground v.1.15,2013-04-03 07:38:00,
2013-04-03 02:44:00,22.5,19.2,30.35,NNW,345,0.0,0.0,87,0.00,,,0.00,Wunderground v.1.15,2013-04-03 07:44:00,
2013-04-03 02:50:00,23.0,19.4,30.35,NNW,345,0.0,0.0,86,0.00,,,0.00,Wunderground v.1.15,2013-04-03 07:50:00,
2013-04-03 02:58:00,23.7,19.6,30.35,NNW,345,0.0,0.0,84,0.00,,,0.00,Wunderground v.1.15,2013-04-03 07:58:00,
2013-04-03 03:04:00,24.0,19.6,30.35,NNW,345,0.0,0.0,83,0.00,,,0.00,Wunderground v.1.15,2013-04-03 08:04:00,
2013-04-03 03:10:00,24.1,19.4,30.34,NNW,345,0.0,3.0,82,0.00,,,0.00,Wunderground v.1.15,2013-04-03 08:10:00,
2013-04-03 03:16:00,23.9,18.6,30.34,NNW,345,1.0,3.0,80,0.00,,,0.00,Wunderground v.1.15,2013-04-03 08:16:00,
2013-04-03 03:22:00,23.0,17.7,30.34,NNW,345,1.0,2.0,80,0.00,,,0.00,Wunderground v.1.15,2013-04-03 08:22:00,
2013-04-03 03:28:00,22.4,17.7,30.34,NNW,345,2.0,2.0,82,0.00,,,0.00,Wunderground v.1.15,2013-04-03 08:28:00,
2013-04-03 03:34:00,22.0,17.6,30.34,NNW,345,2.0,2.0,83,0.00,,,0.00,Wunderground v.1.15,2013-04-03 08:34:00,
2013-04-03 03:40:00,21.7,17.6,30.34,NNW,345,2.0,2.0,84,0.00,,,0.00,Wunderground v.1.15,2013-04-03 08:40:00,
2013-04-03 03:46:00,21.8,18.0,30.34,NNW,345,2.0,2.0,85,0.00,,,0.00,Wunderground v.1.15,2013-04-03 08:46:00,
2013-04-03 03:52:00,22.1,18.3,30.35,NNW,345,2.0,3.0,85,0.00,,,0.00,Wunderground v.1.15,2013-04-03 08:52:00,
2013-04-03 03:58:00,22.3,18.2,30.35,NNW,345,2.0,3.0,84,0.00,,,0.00,Wunderground v.1.15,2013-04-03 08:58:00,
2013-04-03 04:04:00,22.4,18.3,30.34,North,5,3.0,4.0,84,0.00,,,0.00,Wunderground v.1.15,2013-04-03 09:04:00,
2013-04-03 04:10:00,22.7,18.6,30.35,North,5,3.0,3.0,84,0.00,,,0.00,Wunderground v.1.15,2013-04-03 09:10:00,
2013-04-03 04:16:00,22.7,18.3,30.36,North,5,1.0,3.0,83,0.00,,,0.00,Wunderground v.1.15,2013-04-03 09:16:00,
2013-04-03 04:22:00,22.5,17.8,30.36,North,5,0.0,0.0,82,0.00,,,0.00,Wunderground v.1.15,2013-04-03 09:22:00,
2013-04-03 04:28:00,22.6,17.9,30.36,North,5,0.0,0.0,82,0.00,,,0.00,Wunderground v.1.15,2013-04-03 09:28:00,
2013-04-03 04:34:00,22.8,17.8,30.37,North,5,0.0,0.0,81,0.00,,,0.00,Wunderground v.1.15,2013-04-03 09:34:00,
2013-04-03 04:40:00,22.8,17.6,30.37,North,5,0.0,0.0,80,0.00,,,0.00,Wunderground v.1.15,2013-04-03 09:40:00,
2013-04-03 04:46:00,22.5,17.3,30.37,North,5,0.0,0.0,80,0.00,,,0.00,Wunderground v.1.15,2013-04-03 09:46:00,
2013-04-03 04:52:00,21.9,16.7,30.37,North,5,0.0,0.0,80,0.00,,,0.00,Wunderground v.1.15,2013-04-03 09:52:00,
2013-04-03 04:58:00,21.4,16.5,30.38,North,5,0.0,0.0,81,0.00,,,0.00,Wunderground v.1.15,2013-04-03 09:58:00,
2013-04-03 05:04:00,21.2,16.6,30.38,North,5,0.0,0.0,82,0.00,,,0.00,Wunderground v.1.15,2013-04-03 10:04:00,
2013-04-03 05:10:00,21.7,17.3,30.39,North,5,0.0,0.0,83,0.00,,,0.00,Wunderground v.1.15,2013-04-03 10:10:00,
2013-04-03 05:16:00,22.7,17.7,30.39,North,5,1.0,3.0,81,0.00,,,0.00,Wunderground v.1.15,2013-04-03 10:16:00,
2013-04-03 05:22:00,23.3,18.0,30.40,North,5,2.0,2.0,80,0.00,,,0.00,Wunderground v.1.15,2013-04-03 10:22:00,
2013-04-03 05:28:00,23.3,17.7,30.40,North,5,1.0,2.0,79,0.00,,,0.00,Wunderground v.1.15,2013-04-03 10:28:00,
2013-04-03 05:34:00,22.9,17.1,30.41,North,5,0.0,0.0,78,0.00,,,0.00,Wunderground v.1.15,2013-04-03 10:34:00,
2013-04-03 05:40:00,22.4,17.5,30.40,North,5,0.0,2.0,81,0.00,,,0.00,Wunderground v.1.15,2013-04-03 10:40:00,
2013-04-03 05:46:00,22.6,17.4,30.39,North,5,2.0,4.0,80,0.00,,,0.00,Wunderground v.1.15,2013-04-03 10:46:00,
2013-04-03 05:52:00,22.1,17.2,30.39,North,5,3.0,3.0,81,0.00,,,0.00,Wunderground v.1.15,2013-04-03 10:52:00,
2013-04-03 05:58:00,22.0,17.3,30.38,North,11,4.0,5.0,82,0.00,,,0.00,Wunderground v.1.15,2013-04-03 10:58:00,
2013-04-03 06:04:00,22.1,17.7,30.38,NNE,12,4.0,5.0,83,0.00,,,0.00,Wunderground v.1.15,2013-04-03 11:04:00,
2013-04-03 06:10:00,22.5,18.1,30.39,NNE,12,4.0,4.0,83,0.00,,,0.00,Wunderground v.1.15,2013-04-03 11:10:00,
2013-04-03 06:18:00,23.0,18.6,30.38,NNE,21,4.0,5.0,83,0.00,,,0.00,Wunderground v.1.15,2013-04-03 11:18:00,
2013-04-03 06:24:00,23.6,18.9,30.39,NNE,22,5.0,5.0,82,0.00,,,0.00,Wunderground v.1.15,2013-04-03 11:24:00,
2013-04-03 06:30:00,23.7,18.7,30.39,NNE,22,4.0,5.0,81,0.00,,,0.00,Wunderground v.1.15,2013-04-03 11:30:00,
2013-04-03 06:36:00,23.8,18.5,30.39,NNE,22,4.0,5.0,80,0.00,,,0.00,Wunderground v.1.15,2013-04-03 11:36:00,
2013-04-03 06:42:00,23.9,18.6,30.40,NNE,30,4.0,4.0,80,0.00,,,0.00,Wunderground v.1.15,2013-04-03 11:42:00,
2013-04-03 06:48:00,23.9,18.6,30.39,NNE,30,4.0,5.0,80,0.00,,,0.00,Wunderground v.1.15,2013-04-03 11:48:00,
2013-04-03 06:54:00,24.2,19.2,30.39,NNE,30,4.0,5.0,81,0.00,,,0.00,Wunderground v.1.15,2013-04-03 11:54:00,
2013-04-03 07:00:00,24.8,19.8,30.39,NNE,30,5.0,5.0,81,0.00,,,0.00,Wunderground v.1.15,2013-04-03 12:00:00,
2013-04-03 07:06:00,25.4,20.1,30.39,NNE,30,4.0,5.0,80,0.00,,,0.00,Wunderground v.1.15,2013-04-03 12:06:00,
2013-04-03 07:14:00,26.3,20.7,30.40,NE,34,5.0,6.0,79,0.00,,,0.00,Wunderground v.1.15,2013-04-03 12:14:00,
2013-04-03 07:20:00,26.9,21.0,30.40,NNE,33,5.0,5.0,78,0.00,,,0.00,Wunderground v.1.15,2013-04-03 12:20:00,
2013-04-03 07:26:00,27.3,21.0,30.41,NE,34,5.0,5.0,77,0.00,,,0.00,Wunderground v.1.15,2013-04-03 12:26:00,
2013-04-03 07:34:00,27.9,21.3,30.41,NNE,33,5.0,6.0,76,0.00,,,0.00,Wunderground v.1.15,2013-04-03 12:34:00,
2013-04-03 07:40:00,28.6,22.3,30.41,NNE,32,6.0,7.0,77,0.00,,,0.00,Wunderground v.1.15,2013-04-03 12:40:00,
2013-04-03 07:46:00,29.0,21.7,30.42,NE,38,6.0,7.0,74,0.00,,,0.00,Wunderground v.1.15,2013-04-03 12:46:00,
2013-04-03 07:52:00,29.5,22.2,30.42,NE,38,6.0,8.0,74,0.00,,,0.00,Wunderground v.1.15,2013-04-03 12:52:00,
2013-04-03 07:58:00,29.9,22.0,30.43,NNE,28,7.0,8.0,72,0.00,,,0.00,Wunderground v.1.15,2013-04-03 12:58:00,
2013-04-03 08:04:00,30.5,22.2,30.43,NE,44,7.0,8.0,71,0.00,,,0.00,Wunderground v.1.15,2013-04-03 13:04:00,
2013-04-03 08:10:00,30.8,21.5,30.43,NE,34,6.0,7.0,68,0.00,,,0.00,Wunderground v.1.15,2013-04-03 13:10:00,
2013-04-03 08:18:00,31.3,21.6,30.44,ENE,59,7.0,9.0,67,0.00,,,0.00,Wunderground v.1.15,2013-04-03 13:18:00,
2013-04-03 08:24:00,31.5,21.8,30.44,NE,54,7.0,7.0,67,0.00,,,0.00,Wunderground v.1.15,2013-04-03 13:24:00,
2013-04-03 08:30:00,31.6,21.2,30.43,NE,42,7.0,9.0,65,0.00,,,0.00,Wunderground v.1.15,2013-04-03 13:30:00,
2013-04-03 08:36:00,31.8,21.4,30.44,ENE,67,7.0,9.0,65,0.00,,,0.00,Wunderground v.1.15,2013-04-03 13:36:00,
2013-04-03 08:42:00,32.2,21.0,30.44,NE,55,7.0,7.0,63,0.00,,,0.00,Wunderground v.1.15,2013-04-03 13:42:00,
2013-04-03 08:48:00,32.6,21.4,30.44,ENE,61,6.0,7.0,63,0.00,,,0.00,Wunderground v.1.15,2013-04-03 13:48:00,
2013-04-03 08:54:00,33.0,21.8,30.45,ENE,65,6.0,6.0,63,0.00,,,0.00,Wunderground v.1.15,2013-04-03 13:54:00,
2013-04-03 09:00:00,33.5,20.7,30.45,ENE,74,5.0,5.0,59,0.00,,,0.00,Wunderground v.1.15,2013-04-03 14:00:00,
2013-04-03 09:08:00,34.1,20.9,30.45,East,88,4.0,7.0,58,0.00,,,0.00,Wunderground v.1.15,2013-04-03 14:08:00,
2013-04-03 09:14:00,34.0,19.9,30.44,East,86,5.0,7.0,56,0.00,,,0.00,Wunderground v.1.15,2013-04-03 14:14:00,
2013-04-03 09:20:00,34.1,20.4,30.45,ENE,62,5.0,5.0,57,0.00,,,0.00,Wunderground v.1.15,2013-04-03 14:20:00,
2013-04-03 09:26:00,34.4,20.7,30.45,East,83,5.0,5.0,57,0.00,,,0.00,Wunderground v.1.15,2013-04-03 14:26:00,
2013-04-03 09:32:00,35.0,21.3,30.45,ENE,77,3.0,5.0,57,0.00,,,0.00,Wunderground v.1.15,2013-04-03 14:32:00,
2013-04-03 09:38:00,35.4,20.4,30.44,NE,56,3.0,5.0,54,0.00,,,0.00,Wunderground v.1.15,2013-04-03 14:38:00,
2013-04-03 09:44:00,36.0,21.4,30.45,ENE,61,3.0,7.0,55,0.00,,,0.00,Wunderground v.1.15,2013-04-03 14:44:00,
2013-04-03 09:50:00,36.5,20.1,30.45,NE,47,4.0,4.0,51,0.00,,,0.00,Wunderground v.1.15,2013-04-03 14:50:00,
2013-04-03 09:56:00,36.7,20.7,30.45,ENE,57,3.0,4.0,52,0.00,,,0.00,Wunderground v.1.15,2013-04-03 14:56:00,
2013-04-03 10:02:00,37.0,19.6,30.45,NE,53,3.0,3.0,49,0.00,,,0.00,Wunderground v.1.15,2013-04-03 15:02:00,
2013-04-03 10:08:00,37.3,20.3,30.45,SE,143,3.0,3.0,50,0.00,,,0.00,Wunderground v.1.15,2013-04-03 15:08:00,
2013-04-03 10:14:00,38.2,19.2,30.45,SE,136,2.0,4.0,46,0.00,,,0.00,Wunderground v.1.15,2013-04-03 15:14:00,
2013-04-03 10:20:00,38.2,19.7,30.46,East,87,3.0,5.0,47,0.00,,,0.00,Wunderground v.1.15,2013-04-03 15:20:00,
2013-04-03 10:26:00,38.6,20.1,30.46,SSE,161,2.0,3.0,47,0.00,,,0.00,Wunderground v.1.15,2013-04-03 15:26:00,
2013-04-03 10:32:00,38.9,18.3,30.46,East,79,3.0,3.0,43,0.00,,,0.00,Wunderground v.1.15,2013-04-03 15:32:00,
2013-04-03 10:38:00,39.2,19.6,30.46,SE,135,3.0,3.0,45,0.00,,,0.00,Wunderground v.1.15,2013-04-03 15:38:00,
2013-04-03 10:44:00,39.3,18.1,30.45,SE,140,3.0,5.0,42,0.00,,,0.00,Wunderground v.1.15,2013-04-03 15:44:00,
2013-04-03 10:50:00,39.5,18.8,30.45,SE,125,3.0,5.0,43,0.00,,,0.00,Wunderground v.1.15,2013-04-03 15:50:00,
2013-04-03 10:58:00,40.1,18.3,30.45,East,92,3.0,3.0,41,0.00,,,0.00,Wunderground v.1.15,2013-04-03 15:58:00,
2013-04-03 11:04:00,40.4,17.4,30.45,ENE,77,3.0,5.0,39,0.00,,,0.00,Wunderground v.1.15,2013-04-03 16:04:00,
2013-04-03 11:10:00,40.5,18.0,30.45,ESE,112,4.0,5.0,40,0.00,,,0.00,Wunderground v.1.15,2013-04-03 16:10:00,
2013-04-03 11:18:00,40.7,18.8,30.45,SE,131,4.0,6.0,41,0.00,,,0.00,Wunderground v.1.15,2013-04-03 16:18:00,
2013-04-03 11:24:00,41.1,18.6,30.45,SE,128,2.0,4.0,40,0.00,,,0.00,Wunderground v.1.15,2013-04-03 16:24:00,
2013-04-03 11:30:00,41.2,16.9,30.45,ESE,104,3.0,5.0,37,0.00,,,0.00,Wunderground v.1.15,2013-04-03 16:30:00,
2013-04-03 11:36:00,41.1,16.8,30.45,East,93,4.0,6.0,37,0.00,,,0.00,Wunderground v.1.15,2013-04-03 16:36:00,
2013-04-03 11:42:00,41.0,17.3,30.45,ESE,117,4.0,4.0,38,0.00,,,0.00,Wunderground v.1.15,2013-04-03 16:42:00,
2013-04-03 11:48:00,41.7,17.3,30.45,East,101,3.0,5.0,37,0.00,,,0.00,Wunderground v.1.15,2013-04-03 16:48:00,
2013-04-03 11:54:00,42.0,18.2,30.45,East,80,4.0,9.0,38,0.00,,,0.00,Wunderground v.1.15,2013-04-03 16:54:00,
2013-04-03 12:00:00,42.6,18.7,30.45,ESE,117,5.0,7.0,38,0.00,,,0.00,Wunderground v.1.15,2013-04-03 17:00:00,
2013-04-03 12:08:00,42.0,18.2,30.45,SE,144,5.0,7.0,38,0.00,,,0.00,Wunderground v.1.15,2013-04-03 17:08:00,
2013-04-03 12:14:00,42.3,16.6,30.45,ESE,119,4.0,4.0,35,0.00,,,0.00,Wunderground v.1.15,2013-04-03 17:14:00,
2013-04-03 12:20:00,42.4,16.6,30.44,East,92,3.0,7.0,35,0.00,,,0.00,Wunderground v.1.15,2013-04-03 17:20:00,
2013-04-03 12:28:00,42.3,15.2,30.44,NE,37,6.0,9.0,33,0.00,,,0.00,Wunderground v.1.15,2013-04-03 17:28:00,
2013-04-03 12:34:00,42.6,16.8,30.44,NE,55,4.0,6.0,35,0.00,,,0.00,Wunderground v.1.15,2013-04-03 17:34:00,
2013-04-03 12:40:00,42.9,16.4,30.43,NE,46,2.0,3.0,34,0.00,,,0.00,Wunderground v.1.15,2013-04-03 17:40:00,
2013-04-03 12:46:00,43.0,16.5,30.43,SSW,202,3.0,5.0,34,0.00,,,0.00,Wunderground v.1.15,2013-04-03 17:46:00,
2013-04-03 12:52:00,43.5,16.9,30.43,SE,143,4.0,4.0,34,0.00,,,0.00,Wunderground v.1.15,2013-04-03 17:52:00,
2013-04-03 12:58:00,43.9,19.3,30.42,ESE,107,4.0,5.0,37,0.00,,,0.00,Wunderground v.1.15,2013-04-03 17:58:00,
2013-04-03 13:04:00,43.5,17.6,30.42,NE,44,7.0,7.0,35,0.00,,,0.00,Wunderground v.1.15,2013-04-03 18:04:00,
2013-04-03 13:10:00,43.4,17.5,30.41,East,92,7.0,10.0,35,0.00,,,0.00,Wunderground v.1.15,2013-04-03 18:10:00,
2013-04-03 13:16:00,43.6,17.0,30.41,East,97,8.0,8.0,34,0.00,,,0.00,Wunderground v.1.15,2013-04-03 18:16:00,
2013-04-03 13:22:00,43.5,16.9,30.41,NE,55,6.0,6.0,34,0.00,,,0.00,Wunderground v.1.15,2013-04-03 18:22:00,
2013-04-03 13:28:00,43.6,16.3,30.40,NE,37,4.0,9.0,33,0.00,,,0.00,Wunderground v.1.15,2013-04-03 18:28:00,
2013-04-03 13:36:00,43.9,17.3,30.40,East,98,4.0,4.0,34,0.00,,,0.00,Wunderground v.1.15,2013-04-03 18:36:00,
2013-04-03 13:42:00,44.1,16.8,30.40,ENE,65,8.0,8.0,33,0.00,,,0.00,Wunderground v.1.15,2013-04-03 18:42:00,
2013-04-03 13:48:00,44.3,16.3,30.39,ESE,111,7.0,8.0,32,0.00,,,0.00,Wunderground v.1.15,2013-04-03 18:48:00,
2013-04-03 13:54:00,44.7,17.3,30.39,East,88,6.0,11.0,33,0.00,,,0.00,Wunderground v.1.15,2013-04-03 18:54:00,
2013-04-03 14:00:00,44.9,16.8,30.38,SE,128,7.0,7.0,32,0.00,,,0.00,Wunderground v.1.15,2013-04-03 19:00:00,
2013-04-03 14:06:00,45.2,17.8,30.38,ENE,78,5.0,7.0,33,0.00,,,0.00,Wunderground v.1.15,2013-04-03 19:06:00,
2013-04-03 14:20:00,45.4,16.5,30.37,NE,48,6.0,10.0,31,0.00,,,0.00,Wunderground v.1.15,2013-04-03 19:20:00,
2013-04-03 14:28:00,45.4,16.5,30.37,NE,40,8.0,10.0,31,0.00,,,0.00,Wunderground v.1.15,2013-04-03 19:28:00,
2013-04-03 14:34:00,45.6,17.4,30.37,East,89,7.0,8.0,32,0.00,,,0.00,Wunderground v.1.15,2013-04-03 19:34:00,
2013-04-03 14:40:00,45.6,17.4,30.37,East,97,4.0,6.0,32,0.00,,,0.00,Wunderground v.1.15,2013-04-03 19:40:00,
2013-04-03 14:46:00,45.6,15.9,30.37,ESE,103,2.0,6.0,30,0.00,,,0.00,Wunderground v.1.15,2013-04-03 19:46:00,
2013-04-03 14:52:00,46.2,19.3,30.36,East,93,3.0,10.0,34,0.00,,,0.00,Wunderground v.1.15,2013-04-03 19:52:00,
2013-04-03 14:58:00,46.3,18.0,30.37,ENE,69,6.0,13.0,32,0.00,,,0.00,Wunderground v.1.15,2013-04-03 19:58:00,
2013-04-03 15:12:00,46.6,16.8,30.36,ESE,107,4.0,5.0,30,0.00,,,0.00,Wunderground v.1.15,2013-04-03 20:12:00,
2013-04-03 15:18:00,47.1,18.0,30.36,ESE,111,4.0,8.0,31,0.00,,,0.00,Wunderground v.1.15,2013-04-03 20:18:00,
2013-04-03 15:24:00,47.6,19.9,30.36,ENE,62,6.0,13.0,33,0.00,,,0.00,Wunderground v.1.15,2013-04-03 20:24:00,
2013-04-03 15:30:00,47.0,16.3,30.36,ENE,65,9.0,13.0,29,0.00,,,0.00,Wunderground v.1.15,2013-04-03 20:30:00,
2013-04-03 15:36:00,46.7,17.6,30.36,ENE,71,6.0,9.0,31,0.00,,,0.00,Wunderground v.1.15,2013-04-03 20:36:00,
2013-04-03 15:42:00,47.2,16.5,30.36,NE,49,6.0,6.0,29,0.00,,,0.00,Wunderground v.1.15,2013-04-03 20:42:00,
2013-04-03 15:48:00,46.8,16.2,30.35,ENE,63,8.0,8.0,29,0.00,,,0.00,Wunderground v.1.15,2013-04-03 20:48:00,
2013-04-03 15:54:00,47.5,19.8,30.35,NE,36,6.0,6.0,33,0.00,,,0.00,Wunderground v.1.15,2013-04-03 20:54:00,
2013-04-03 16:02:00,47.8,19.3,30.35,SE,128,6.0,6.0,32,0.00,,,0.00,Wunderground v.1.15,2013-04-03 21:02:00,
2013-04-03 16:08:00,48.2,18.2,30.36,SE,141,6.0,6.0,30,0.00,,,0.00,Wunderground v.1.15,2013-04-03 21:08:00,
2013-04-03 16:14:00,48.3,18.3,30.36,SE,143,5.0,5.0,30,0.00,,,0.00,Wunderground v.1.15,2013-04-03 21:14:00,
2013-04-03 16:20:00,48.2,16.6,30.35,ESE,121,4.0,5.0,28,0.00,,,0.00,Wunderground v.1.15,2013-04-03 21:20:00,
2013-04-03 16:26:00,47.7,16.1,30.35,ESE,104,5.0,10.0,28,0.00,,,0.00,Wunderground v.1.15,2013-04-03 21:26:00,
2013-04-03 16:32:00,47.8,17.8,30.35,ESE,115,7.0,7.0,30,0.00,,,0.00,Wunderground v.1.15,2013-04-03 21:32:00,
2013-04-03 16:38:00,47.5,17.6,30.35,SE,136,6.0,7.0,30,0.00,,,0.00,Wunderground v.1.15,2013-04-03 21:38:00,
2013-04-03 16:44:00,47.8,17.0,30.34,SSE,166,5.0,5.0,29,0.00,,,0.00,Wunderground v.1.15,2013-04-03 21:44:00,
2013-04-03 16:50:00,48.2,18.2,30.34,SSE,166,3.0,5.0,30,0.00,,,0.00,Wunderground v.1.15,2013-04-03 21:50:00,
2013-04-03 16:56:00,48.7,17.8,30.34,SW,222,2.0,4.0,29,0.00,,,0.00,Wunderground v.1.15,2013-04-03 21:56:00,
2013-04-03 17:02:00,48.8,18.7,30.34,SSE,159,3.0,4.0,30,0.00,,,0.00,Wunderground v.1.15,2013-04-03 22:02:00,
2013-04-03 17:08:00,48.8,20.2,30.34,East,94,3.0,7.0,32,0.00,,,0.00,Wunderground v.1.15,2013-04-03 22:08:00,
2013-04-03 17:14:00,48.2,19.7,30.34,SE,129,5.0,7.0,32,0.00,,,0.00,Wunderground v.1.15,2013-04-03 22:14:00,
2013-04-03 17:20:00,48.7,20.1,30.34,South,186,4.0,6.0,32,0.00,,,0.00,Wunderground v.1.15,2013-04-03 22:20:00,
2013-04-03 17:28:00,48.5,18.4,30.34,ESE,116,3.0,6.0,30,0.00,,,0.00,Wunderground v.1.15,2013-04-03 22:28:00,
2013-04-03 17:34:00,48.5,21.4,30.34,South,173,3.0,3.0,34,0.00,,,0.00,Wunderground v.1.15,2013-04-03 22:34:00,
2013-04-03 17:40:00,48.7,20.8,30.34,SSW,198,3.0,3.0,33,0.00,,,0.00,Wunderground v.1.15,2013-04-03 22:40:00,
2013-04-03 17:46:00,48.4,19.9,30.33,SE,142,3.0,3.0,32,0.00,,,0.00,Wunderground v.1.15,2013-04-03 22:46:00,
2013-04-03 17:52:00,48.2,20.4,30.33,SE,135,2.0,4.0,33,0.00,,,0.00,Wunderground v.1.15,2013-04-03 22:52:00,
2013-04-03 17:58:00,47.5,20.5,30.33,ESE,120,4.0,7.0,34,0.00,,,0.00,Wunderground v.1.15,2013-04-03 22:58:00,
2013-04-03 18:04:00,47.2,20.9,30.33,SSE,149,4.0,8.0,35,0.00,,,0.00,Wunderground v.1.15,2013-04-03 23:04:00,
2013-04-03 18:10:00,46.9,19.3,30.33,SE,128,4.0,8.0,33,0.00,,,0.00,Wunderground v.1.15,2013-04-03 23:10:00,
2013-04-03 18:16:00,46.7,19.8,30.33,ESE,119,4.0,5.0,34,0.00,,,0.00,Wunderground v.1.15,2013-04-03 23:16:00,
2013-04-03 18:22:00,46.1,19.9,30.33,ESE,112,6.0,6.0,35,0.00,,,0.00,Wunderground v.1.15,2013-04-03 23:22:00,
2013-04-03 18:28:00,45.9,19.1,30.33,ESE,105,6.0,8.0,34,0.00,,,0.00,Wunderground v.1.15,2013-04-03 23:28:00,
2013-04-03 18:34:00,45.6,19.5,30.33,ESE,105,5.0,7.0,35,0.00,,,0.00,Wunderground v.1.15,2013-04-03 23:34:00,
2013-04-03 18:40:00,45.2,19.1,30.33,ESE,120,5.0,7.0,35,0.00,,,0.00,Wunderground v.1.15,2013-04-03 23:40:00,
2013-04-03 18:48:00,44.7,18.0,30.33,SE,135,5.0,6.0,34,0.00,,,0.00,Wunderground v.1.15,2013-04-03 23:48:00,
2013-04-03 18:54:00,44.2,18.2,30.33,ESE,113,5.0,7.0,35,0.00,,,0.00,Wunderground v.1.15,2013-04-03 23:54:00,
2013-04-03 19:00:00,43.7,19.1,30.33,East,94,5.0,5.0,37,0.00,,,0.00,Wunderground v.1.15,2013-04-04 00:00:00,
2013-04-03 19:06:00,43.2,19.3,30.33,SE,125,4.0,5.0,38,0.00,,,0.00,Wunderground v.1.15,2013-04-04 00:06:00,
2013-04-03 19:12:00,42.8,18.9,30.33,East,94,4.0,4.0,38,0.00,,,0.00,Wunderground v.1.15,2013-04-04 00:12:00,
2013-04-03 19:18:00,42.3,18.5,30.33,East,90,4.0,7.0,38,0.00,,,0.00,Wunderground v.1.15,2013-04-04 00:18:00,
2013-04-03 19:24:00,41.9,18.7,30.33,East,101,4.0,6.0,39,0.00,,,0.00,Wunderground v.1.15,2013-04-04 00:24:00,
2013-04-03 19:30:00,41.3,18.2,30.33,ESE,119,4.0,4.0,39,0.00,,,0.00,Wunderground v.1.15,2013-04-04 00:30:00,
2013-04-03 19:36:00,41.0,18.5,30.33,ESE,110,3.0,4.0,40,0.00,,,0.00,Wunderground v.1.15,2013-04-04 00:36:00,
2013-04-03 19:42:00,40.5,18.0,30.33,ESE,110,3.0,3.0,40,0.00,,,0.00,Wunderground v.1.15,2013-04-04 00:42:00,
2013-04-03 19:48:00,40.2,18.3,30.33,East,96,3.0,7.0,41,0.00,,,0.00,Wunderground v.1.15,2013-04-04 00:48:00,
2013-04-03 19:54:00,39.8,18.0,30.33,ESE,112,3.0,3.0,41,0.00,,,0.00,Wunderground v.1.15,2013-04-04 00:54:00,
2013-04-03 20:00:00,39.5,17.1,30.33,East,101,4.0,6.0,40,0.00,,,0.00,Wunderground v.1.15,2013-04-04 01:00:00,
2013-04-03 20:06:00,39.4,17.0,30.33,East,100,4.0,7.0,40,0.00,,,0.00,Wunderground v.1.15,2013-04-04 01:06:00,
2013-04-03 20:12:00,39.1,17.4,30.33,East,99,3.0,3.0,41,0.00,,,0.00,Wunderground v.1.15,2013-04-04 01:12:00,
2013-04-03 20:18:00,38.1,19.1,30.33,East,89,3.0,5.0,46,0.00,,,0.00,Wunderground v.1.15,2013-04-04 01:18:00,
2013-04-03 20:24:00,37.9,16.8,30.33,East,101,4.0,5.0,42,0.00,,,0.00,Wunderground v.1.15,2013-04-04 01:24:00,
2013-04-03 20:30:00,38.3,16.1,30.33,East,98,5.0,9.0,40,0.00,,,0.00,Wunderground v.1.15,2013-04-04 01:30:00,
2013-04-03 20:38:00,38.2,16.0,30.33,ESE,103,5.0,6.0,40,0.00,,,0.00,Wunderground v.1.15,2013-04-04 01:38:00,
2013-04-03 20:44:00,37.9,15.7,30.33,East,90,5.0,6.0,40,0.00,,,0.00,Wunderground v.1.15,2013-04-04 01:44:00,
2013-04-03 20:50:00,37.6,15.4,30.33,ESE,113,5.0,6.0,40,0.00,,,0.00,Wunderground v.1.15,2013-04-04 01:50:00,
2013-04-03 20:58:00,37.3,15.2,30.33,East,98,5.0,8.0,40,0.00,,,0.00,Wunderground v.1.15,2013-04-04 01:58:00,
2013-04-03 21:04:00,37.1,15.5,30.33,ESE,107,6.0,6.0,41,0.00,,,0.00,Wunderground v.1.15,2013-04-04 02:04:00,
2013-04-03 21:10:00,36.9,15.9,30.33,East,101,6.0,6.0,42,0.00,,,0.00,Wunderground v.1.15,2013-04-04 02:10:00,
2013-04-03 21:16:00,36.6,15.6,30.33,East,94,5.0,7.0,42,0.00,,,0.00,Wunderground v.1.15,2013-04-04 02:16:00,
2013-04-03 21:22:00,36.2,15.8,30.33,ESE,120,5.0,5.0,43,0.00,,,0.00,Wunderground v.1.15,2013-04-04 02:22:00,
2013-04-03 21:28:00,36.0,16.2,30.33,East,84,5.0,7.0,44,0.00,,,0.00,Wunderground v.1.15,2013-04-04 02:28:00,
2013-04-03 21:34:00,35.8,16.0,30.33,East,94,5.0,5.0,44,0.00,,,0.00,Wunderground v.1.15,2013-04-04 02:34:00,
2013-04-03 21:40:00,35.1,17.4,30.33,East,97,4.0,6.0,48,0.00,,,0.00,Wunderground v.1.15,2013-04-04 02:40:00,
2013-04-03 21:46:00,34.2,17.0,30.33,East,90,3.0,5.0,49,0.00,,,0.00,Wunderground v.1.15,2013-04-04 02:46:00,
2013-04-03 21:54:00,34.3,16.6,30.33,East,96,4.0,5.0,48,0.00,,,0.00,Wunderground v.1.15,2013-04-04 02:54:00,
2013-04-03 22:00:00,34.4,16.2,30.33,East,92,4.0,4.0,47,0.00,,,0.00,Wunderground v.1.15,2013-04-04 03:00:00,
2013-04-03 22:08:00,34.0,16.8,30.33,ESE,115,3.0,4.0,49,0.00,,,0.00,Wunderground v.1.15,2013-04-04 03:08:00,
2013-04-03 22:16:00,33.4,16.7,30.33,ESE,104,2.0,3.0,50,0.00,,,0.00,Wunderground v.1.15,2013-04-04 03:16:00,
2013-04-03 22:22:00,33.1,16.9,30.33,ESE,107,2.0,2.0,51,0.00,,,0.00,Wunderground v.1.15,2013-04-04 03:22:00,
2013-04-03 22:28:00,32.8,17.1,30.33,ESE,111,2.0,2.0,52,0.00,,,0.00,Wunderground v.1.15,2013-04-04 03:28:00,
2013-04-03 22:34:00,32.6,16.9,30.33,ESE,102,2.0,3.0,52,0.00,,,0.00,Wunderground v.1.15,2013-04-04 03:34:00,
2013-04-03 22:40:00,32.4,17.2,30.33,ESE,102,2.0,2.0,53,0.00,,,0.00,Wunderground v.1.15,2013-04-04 03:40:00,
2013-04-03 22:46:00,32.0,18.1,30.32,SE,124,1.0,2.0,56,0.00,,,0.00,Wunderground v.1.15,2013-04-04 03:46:00,
2013-04-03 22:52:00,31.2,17.7,30.32,SE,124,1.0,1.0,57,0.00,,,0.00,Wunderground v.1.15,2013-04-04 03:52:00,
2013-04-03 22:58:00,30.6,18.0,30.32,SE,135,1.0,2.0,59,0.00,,,0.00,Wunderground v.1.15,2013-04-04 03:58:00,
2013-04-03 23:00:00,30.5,18.3,30.32,SE,135,1.0,1.0,60,0.00,,,0.00,Wunderground v.1.15,2013-04-04 04:00:00,
2013-04-03 23:04:00,30.3,18.1,30.32,SE,135,0.0,1.0,60,0.00,,,0.00,Wunderground v.1.15,2013-04-04 04:04:00,
2013-04-03 23:10:00,30.2,18.0,30.32,SE,135,0.0,0.0,60,0.00,,,0.00,Wunderground v.1.15,2013-04-04 04:10:00,
2013-04-03 23:18:00,30.4,17.8,30.32,SE,142,1.0,1.0,59,0.00,,,0.00,Wunderground v.1.15,2013-04-04 04:18:00,
2013-04-03 23:24:00,30.5,17.9,30.32,SE,142,0.0,1.0,59,0.00,,,0.00,Wunderground v.1.15,2013-04-04 04:24:00,
2013-04-03 23:28:00,30.6,18.0,30.33,SE,142,0.0,1.0,59,0.00,,,0.00,Wunderground v.1.15,2013-04-04 04:28:00,
2013-04-03 23:34:00,30.5,17.9,30.33,SE,142,0.0,0.0,59,0.00,,,0.00,Wunderground v.1.15,2013-04-04 04:34:00,
2013-04-03 23:40:00,30.3,17.7,30.32,SE,142,0.0,0.0,59,0.00,,,0.00,Wunderground v.1.15,2013-04-04 04:40:00,
2013-04-03 23:46:00,30.0,17.8,30.32,SE,142,0.0,2.0,60,0.00,,,0.00,Wunderground v.1.15,2013-04-04 04:46:00,
2013-04-03 23:52:00,29.8,17.6,30.32,SE,142,0.0,1.0,60,0.00,,,0.00,Wunderground v.1.15,2013-04-04 04:52:00,
2013-04-03 23:58:00,29.7,17.9,30.32,SE,131,1.0,3.0,61,0.00,,,0.00,Wunderground v.1.15,2013-04-04 04:58:00,